createdAt,value
2022-09-12T00:00:04.474Z,0.00
2022-09-12T00:01:04.654Z,0.00
2022-09-12T00:02:05.290Z,0.00
2022-09-12T00:03:04.978Z,0.00
2022-09-12T00:04:05.100Z,0.00
2022-09-12T00:05:05.253Z,0.00
2022-09-12T00:06:06.255Z,0.00
2022-09-12T00:07:06.255Z,0.00
2022-09-12T00:08:06.253Z,0.00
2022-09-12T00:09:05.884Z,0.00
2022-09-12T00:10:06.067Z,0.00
2022-09-12T00:11:06.266Z,0.00
2022-09-12T00:12:06.413Z,0.00
2022-09-12T00:13:08.254Z,0.00
2022-09-12T00:14:06.720Z,0.00
2022-09-12T00:15:06.860Z,0.00
2022-09-12T00:16:07.071Z,0.00
2022-09-12T00:17:07.271Z,0.00
2022-09-12T00:18:07.397Z,0.00
2022-09-12T00:19:09.258Z,0.00
2022-09-12T00:20:07.722Z,0.00
2022-09-12T00:21:08.757Z,0.00
2022-09-12T00:22:08.017Z,0.00
2022-09-12T00:23:08.139Z,0.00
2022-09-12T00:24:08.274Z,0.00
2022-09-12T00:25:08.445Z,0.00
2022-09-12T00:26:08.586Z,0.00
2022-09-12T00:27:08.732Z,0.00
2022-09-12T00:28:08.855Z,0.00
2022-09-12T00:29:08.990Z,0.00
2022-09-12T00:30:09.164Z,0.00
2022-09-12T00:31:09.295Z,0.00
2022-09-12T00:32:10.263Z,0.00
2022-09-12T00:33:09.633Z,0.00
2022-09-12T00:34:09.797Z,0.00
2022-09-12T00:35:09.933Z,0.00
2022-09-12T00:36:10.106Z,0.00
2022-09-12T00:37:10.256Z,0.00
2022-09-12T00:38:10.409Z,0.00
2022-09-12T00:39:10.593Z,0.00
2022-09-12T00:40:10.794Z,0.00
2022-09-12T00:41:10.963Z,0.00
2022-09-12T00:42:11.284Z,0.00
2022-09-12T00:43:11.324Z,0.00
2022-09-12T00:44:11.476Z,0.00
2022-09-12T00:45:11.651Z,0.00
2022-09-12T00:46:11.827Z,0.00
2022-09-12T00:47:11.964Z,0.00
2022-09-12T00:48:12.765Z,0.00
2022-09-12T00:49:12.268Z,0.00
2022-09-12T00:50:13.270Z,0.00
2022-09-12T00:51:12.664Z,0.00
2022-09-12T00:52:13.767Z,0.00
2022-09-12T00:53:13.030Z,0.00
2022-09-12T00:54:13.178Z,0.00
2022-09-12T00:55:13.346Z,0.00
2022-09-12T00:56:13.519Z,0.00
2022-09-12T00:57:13.703Z,0.00
2022-09-12T00:58:13.875Z,0.00
2022-09-12T00:59:14.769Z,0.00
2022-09-12T01:00:14.769Z,0.00
2022-09-12T01:01:14.406Z,0.00
2022-09-12T01:02:14.593Z,0.00
2022-09-12T01:03:14.661Z,0.00
2022-09-12T01:04:14.838Z,0.00
2022-09-12T01:05:15.775Z,0.00
2022-09-12T01:06:15.160Z,0.00
2022-09-12T01:07:15.781Z,0.00
2022-09-12T01:08:15.783Z,0.00
2022-09-12T01:09:16.269Z,0.00
2022-09-12T01:10:15.890Z,0.00
2022-09-12T01:11:16.775Z,0.00
2022-09-12T01:12:16.777Z,0.00
2022-09-12T01:13:16.785Z,0.00
2022-09-12T01:14:16.446Z,0.00
2022-09-12T01:15:17.295Z,0.00
2022-09-12T01:16:17.804Z,0.00
2022-09-12T01:17:16.968Z,0.00
2022-09-12T01:18:17.174Z,0.00
2022-09-12T01:19:17.791Z,0.00
2022-09-12T01:20:17.571Z,0.00
2022-09-12T01:21:17.736Z,0.00
2022-09-12T01:22:17.911Z,0.00
2022-09-12T01:23:18.064Z,0.00
2022-09-12T01:24:18.291Z,0.00
2022-09-12T01:25:18.497Z,0.00
2022-09-12T01:26:18.642Z,0.00
2022-09-12T01:27:18.781Z,0.00
2022-09-12T01:28:18.925Z,0.00
2022-09-12T01:29:19.086Z,0.00
2022-09-12T01:30:19.250Z,0.00
2022-09-12T01:31:19.449Z,0.00
2022-09-12T01:32:20.308Z,0.00
2022-09-12T01:33:19.811Z,0.00
2022-09-12T01:34:19.946Z,0.00
2022-09-12T01:35:20.088Z,0.00
2022-09-12T01:36:20.243Z,0.00
2022-09-12T01:37:20.408Z,0.00
2022-09-12T01:38:20.536Z,0.00
2022-09-12T01:39:21.288Z,0.00
2022-09-12T01:40:20.890Z,0.00
2022-09-12T01:41:21.306Z,0.00
2022-09-12T01:42:21.778Z,0.00
2022-09-12T01:43:22.281Z,0.00
2022-09-12T01:44:21.658Z,0.00
2022-09-12T01:45:22.972Z,0.00
2022-09-12T01:46:22.296Z,0.00
2022-09-12T01:47:22.192Z,0.00
2022-09-12T01:48:22.365Z,0.00
2022-09-12T01:49:22.509Z,0.00
2022-09-12T01:50:22.659Z,0.00
2022-09-12T01:51:22.822Z,0.00
2022-09-12T01:52:22.967Z,0.00
2022-09-12T01:53:23.143Z,0.00
2022-09-12T01:54:23.308Z,0.00
2022-09-12T01:55:23.463Z,0.00
2022-09-12T01:56:23.641Z,0.00
2022-09-12T01:57:23.815Z,0.00
2022-09-12T01:58:23.963Z,0.00
2022-09-12T01:59:24.106Z,0.00
2022-09-12T02:00:24.267Z,0.00
2022-09-12T02:01:24.485Z,0.00
2022-09-12T02:02:24.615Z,0.00
2022-09-12T02:03:24.780Z,0.00
2022-09-12T02:04:24.935Z,0.00
2022-09-12T02:05:25.786Z,0.00
2022-09-12T02:06:25.275Z,0.00
2022-09-12T02:07:25.452Z,0.00
2022-09-12T02:08:25.604Z,0.00
2022-09-12T02:09:26.285Z,0.00
2022-09-12T02:10:30.369Z,0.00
2022-09-12T02:11:28.083Z,0.00
2022-09-12T02:12:26.786Z,0.00
2022-09-12T02:13:27.293Z,0.00
2022-09-12T02:14:26.460Z,0.00
2022-09-12T02:15:26.640Z,0.00
2022-09-12T02:16:27.343Z,0.00
2022-09-12T02:17:26.976Z,0.00
2022-09-12T02:18:27.110Z,0.00
2022-09-12T02:19:27.277Z,0.00
2022-09-12T02:20:46.806Z,0.00
2022-09-12T02:21:29.661Z,0.00
2022-09-12T02:22:28.303Z,0.00
2022-09-12T02:23:27.938Z,0.00
2022-09-12T02:24:28.078Z,0.00
2022-09-12T02:25:28.232Z,0.00
2022-09-12T02:26:28.381Z,0.00
2022-09-12T02:27:28.809Z,0.00
2022-09-12T02:28:28.701Z,0.00
2022-09-12T02:29:28.854Z,0.00
2022-09-12T02:30:29.051Z,0.00
2022-09-12T02:31:29.792Z,0.00
2022-09-12T02:32:29.427Z,0.00
2022-09-12T02:33:29.586Z,0.00
2022-09-12T02:34:29.706Z,0.00
2022-09-12T02:35:29.830Z,0.00
2022-09-12T02:36:31.094Z,0.00
2022-09-12T02:37:30.199Z,0.00
2022-09-12T02:38:30.445Z,0.00
2022-09-12T02:39:30.575Z,0.00
2022-09-12T02:40:31.296Z,0.00
2022-09-12T02:41:30.915Z,0.00
2022-09-12T02:42:31.027Z,0.00
2022-09-12T02:43:31.264Z,0.00
2022-09-12T02:44:31.412Z,0.00
2022-09-12T02:45:31.587Z,0.00
2022-09-12T02:46:31.780Z,0.00
2022-09-12T02:47:31.911Z,0.00
2022-09-12T02:48:32.063Z,0.00
2022-09-12T02:49:32.213Z,0.00
2022-09-12T02:50:32.366Z,0.00
2022-09-12T02:51:32.512Z,0.00
2022-09-12T02:52:32.664Z,0.00
2022-09-12T02:53:32.835Z,0.00
2022-09-12T02:54:33.016Z,0.00
2022-09-12T02:55:33.169Z,0.00
2022-09-12T02:56:33.333Z,0.00
2022-09-12T02:57:33.495Z,0.00
2022-09-12T02:58:33.679Z,0.00
2022-09-12T02:59:33.857Z,0.00
2022-09-12T03:00:34.803Z,0.00
2022-09-12T03:01:34.211Z,0.00
2022-09-12T03:02:34.381Z,0.00
2022-09-12T03:03:35.307Z,0.00
2022-09-12T03:04:34.715Z,0.00
2022-09-12T03:05:35.826Z,0.00
2022-09-12T03:06:35.809Z,0.00
2022-09-12T03:07:35.813Z,0.00
2022-09-12T03:08:35.353Z,0.00
2022-09-12T03:09:36.310Z,0.00
2022-09-12T03:10:35.648Z,0.00
2022-09-12T03:11:35.782Z,0.00
2022-09-12T03:12:35.910Z,0.00
2022-09-12T03:13:36.145Z,0.00
2022-09-12T03:14:36.391Z,0.00
2022-09-12T03:15:36.518Z,0.00
2022-09-12T03:16:36.700Z,0.00
2022-09-12T03:17:36.844Z,0.00
2022-09-12T03:18:36.952Z,0.00
2022-09-12T03:19:37.190Z,0.00
2022-09-12T03:20:37.430Z,0.00
2022-09-12T03:21:37.555Z,0.00
2022-09-12T03:22:37.823Z,0.00
2022-09-12T03:23:37.954Z,0.00
2022-09-12T03:24:38.082Z,0.00
2022-09-12T03:25:38.230Z,0.00
2022-09-12T03:26:38.361Z,0.00
2022-09-12T03:27:38.511Z,0.00
2022-09-12T03:28:39.324Z,0.00
2022-09-12T03:29:39.312Z,0.00
2022-09-12T03:30:38.939Z,0.00
2022-09-12T03:31:39.075Z,0.00
2022-09-12T03:32:39.330Z,0.00
2022-09-12T03:33:40.473Z,0.00
2022-09-12T03:34:39.563Z,0.00
2022-09-12T03:35:39.693Z,0.00
2022-09-12T03:36:40.318Z,0.00
2022-09-12T03:37:40.053Z,0.00
2022-09-12T03:38:40.187Z,0.00
2022-09-12T03:39:40.426Z,0.00
2022-09-12T03:40:41.311Z,0.00
2022-09-12T03:41:40.770Z,0.00
2022-09-12T03:42:41.017Z,0.00
2022-09-12T03:43:41.178Z,0.00
2022-09-12T03:44:41.315Z,0.00
2022-09-12T03:45:41.459Z,0.00
2022-09-12T03:46:41.615Z,0.00
2022-09-12T03:47:41.742Z,0.00
2022-09-12T03:48:42.048Z,0.00
2022-09-12T03:49:42.219Z,0.00
2022-09-12T03:50:42.343Z,0.00
2022-09-12T03:51:42.474Z,0.00
2022-09-12T03:52:42.642Z,0.00
2022-09-12T03:53:42.771Z,0.00
2022-09-12T03:54:42.916Z,0.00
2022-09-12T03:55:43.029Z,0.00
2022-09-12T03:56:43.155Z,0.00
2022-09-12T03:57:43.280Z,0.00
2022-09-12T03:58:43.403Z,0.00
2022-09-12T03:59:43.550Z,0.00
2022-09-12T04:00:43.664Z,0.00
2022-09-12T04:01:43.792Z,0.00
2022-09-12T04:02:44.027Z,0.00
2022-09-12T04:03:44.177Z,0.00
2022-09-12T04:04:44.820Z,0.00
2022-09-12T04:05:44.415Z,0.00
2022-09-12T04:06:44.679Z,0.00
2022-09-12T04:07:45.319Z,0.00
2022-09-12T04:08:45.163Z,0.00
2022-09-12T04:09:45.168Z,0.00
2022-09-12T04:10:46.952Z,0.00
2022-09-12T04:11:45.512Z,0.00
2022-09-12T04:12:45.667Z,0.00
2022-09-12T04:13:45.813Z,0.00
2022-09-12T04:14:45.959Z,0.00
2022-09-12T04:15:46.148Z,0.00
2022-09-12T04:16:46.957Z,0.00
2022-09-12T04:17:46.532Z,0.00
2022-09-12T04:18:46.802Z,0.00
2022-09-12T04:19:46.788Z,0.00
2022-09-12T04:20:47.336Z,0.00
2022-09-12T04:21:47.863Z,0.00
2022-09-12T04:22:47.852Z,0.00
2022-09-12T04:23:47.848Z,0.00
2022-09-12T04:24:47.516Z,0.00
2022-09-12T04:25:47.675Z,0.00
2022-09-12T04:26:47.818Z,0.00
2022-09-12T04:27:47.989Z,0.00
2022-09-12T04:28:48.830Z,0.00
2022-09-12T04:29:48.349Z,0.00
2022-09-12T04:30:48.551Z,0.00
2022-09-12T04:31:48.705Z,0.00
2022-09-12T04:32:48.844Z,0.00
2022-09-12T04:33:49.001Z,0.00
2022-09-12T04:34:49.153Z,0.00
2022-09-12T04:35:49.314Z,0.00
2022-09-12T04:36:49.437Z,0.00
2022-09-12T04:37:49.555Z,0.00
2022-09-12T04:38:49.795Z,0.00
2022-09-12T04:39:50.104Z,0.00
2022-09-12T04:40:50.289Z,0.00
2022-09-12T04:41:50.444Z,0.00
2022-09-12T04:42:51.332Z,0.00
2022-09-12T04:43:51.344Z,0.00
2022-09-12T04:44:50.825Z,0.00
2022-09-12T04:45:51.855Z,0.00
2022-09-12T04:46:51.138Z,0.00
2022-09-12T04:47:51.258Z,0.00
2022-09-12T04:48:56.486Z,0.00
2022-09-12T04:49:54.338Z,0.00
2022-09-12T04:50:51.786Z,0.00
2022-09-12T04:51:52.349Z,0.00
2022-09-12T04:52:52.224Z,0.00
2022-09-12T04:53:52.466Z,0.00
2022-09-12T04:54:53.344Z,0.00
2022-09-12T04:55:52.816Z,0.00
2022-09-12T04:56:53.353Z,5.62
2022-09-12T04:57:53.198Z,5.62
2022-09-12T04:58:53.468Z,5.62
2022-09-12T04:59:54.332Z,5.62
2022-09-12T05:00:54.393Z,5.62
2022-09-12T05:01:54.880Z,5.62
2022-09-12T05:02:54.131Z,5.62
2022-09-12T05:03:54.255Z,5.62
2022-09-12T05:04:54.521Z,5.62
2022-09-12T05:05:56.576Z,11.25
2022-09-12T05:06:55.864Z,11.25
2022-09-12T05:07:55.095Z,11.25
2022-09-12T05:08:55.332Z,11.25
2022-09-12T05:09:55.567Z,11.25
2022-09-12T05:10:55.679Z,11.25
2022-09-12T05:12:04.638Z,16.88
2022-09-12T05:12:58.091Z,16.88
2022-09-12T05:13:56.352Z,16.88
2022-09-12T05:14:57.350Z,16.88
2022-09-12T05:15:56.703Z,16.88
2022-09-12T05:16:56.867Z,22.50
2022-09-12T05:17:56.991Z,22.50
2022-09-12T05:18:57.843Z,22.50
2022-09-12T05:19:57.336Z,22.50
2022-09-12T05:20:57.477Z,28.12
2022-09-12T05:21:57.619Z,28.12
2022-09-12T05:22:58.845Z,28.12
2022-09-12T05:23:58.076Z,33.75
2022-09-12T05:24:58.202Z,33.75
2022-09-12T05:25:58.356Z,39.38
2022-09-12T05:26:58.517Z,39.38
2022-09-12T05:27:58.633Z,39.38
2022-09-12T05:28:59.346Z,45.00
2022-09-12T05:29:58.952Z,45.00
2022-09-12T05:30:59.145Z,45.00
2022-09-12T05:31:59.885Z,50.62
2022-09-12T05:32:59.503Z,56.25
2022-09-12T05:34:00.348Z,56.25
2022-09-12T05:34:59.973Z,61.88
2022-09-12T05:36:00.125Z,67.50
2022-09-12T05:37:00.918Z,61.88
2022-09-12T05:38:00.421Z,67.50
2022-09-12T05:39:00.558Z,67.50
2022-09-12T05:40:00.751Z,67.50
2022-09-12T05:41:00.903Z,67.50
2022-09-12T05:42:01.027Z,67.50
2022-09-12T05:43:01.168Z,67.50
2022-09-12T05:44:01.849Z,73.12
2022-09-12T05:45:01.468Z,73.12
2022-09-12T05:46:01.692Z,78.75
2022-09-12T05:47:02.361Z,78.75
2022-09-12T05:48:01.878Z,84.38
2022-09-12T05:49:02.030Z,84.38
2022-09-12T05:50:02.183Z,78.75
2022-09-12T05:51:02.352Z,78.75
2022-09-12T05:52:03.351Z,84.38
2022-09-12T05:53:02.726Z,90.00
2022-09-12T05:54:02.886Z,95.62
2022-09-12T05:55:04.041Z,101.25
2022-09-12T05:56:03.161Z,106.88
2022-09-12T05:57:03.312Z,106.88
2022-09-12T05:58:03.480Z,112.50
2022-09-12T05:59:04.351Z,112.50
2022-09-12T06:00:03.854Z,112.50
2022-09-12T06:01:04.900Z,118.12
2022-09-12T06:02:04.202Z,118.12
2022-09-12T06:03:04.293Z,118.12
2022-09-12T06:04:04.448Z,123.75
2022-09-12T06:05:04.581Z,135.00
2022-09-12T06:06:05.384Z,146.25
2022-09-12T06:07:04.894Z,163.12
2022-09-12T06:08:05.049Z,180.00
2022-09-12T06:09:05.223Z,236.25
2022-09-12T06:10:05.368Z,765.00
2022-09-12T06:11:05.543Z,1395.00
2022-09-12T06:12:05.703Z,1777.50
2022-09-12T06:13:06.357Z,1591.88
2022-09-12T06:14:05.991Z,1642.50
2022-09-12T06:15:06.103Z,1035.00
2022-09-12T06:16:06.859Z,804.38
2022-09-12T06:17:06.368Z,1046.25
2022-09-12T06:18:06.488Z,950.62
2022-09-12T06:19:07.378Z,663.75
2022-09-12T06:20:06.880Z,652.50
2022-09-12T06:21:07.863Z,883.12
2022-09-12T06:22:07.254Z,1839.38
2022-09-12T06:23:07.351Z,883.12
2022-09-12T06:24:07.505Z,438.75
2022-09-12T06:25:08.364Z,405.00
2022-09-12T06:26:08.871Z,433.12
2022-09-12T06:27:08.005Z,365.62
2022-09-12T06:28:08.144Z,455.62
2022-09-12T06:29:08.288Z,765.00
2022-09-12T06:30:09.363Z,871.88
2022-09-12T06:31:08.706Z,551.25
2022-09-12T06:32:08.807Z,601.88
2022-09-12T06:33:08.971Z,416.25
2022-09-12T06:34:09.873Z,511.88
2022-09-12T06:35:09.269Z,900.00
2022-09-12T06:36:12.375Z,928.12
2022-09-12T06:37:10.880Z,551.25
2022-09-12T06:38:09.764Z,348.75
2022-09-12T06:39:09.945Z,376.88
2022-09-12T06:40:10.915Z,247.50
2022-09-12T06:41:10.354Z,253.12
2022-09-12T06:42:10.897Z,258.75
2022-09-12T06:43:11.371Z,258.75
2022-09-12T06:44:10.922Z,354.38
2022-09-12T06:45:11.083Z,540.00
2022-09-12T06:46:11.889Z,821.25
2022-09-12T06:47:12.371Z,888.75
2022-09-12T06:48:11.617Z,1355.62
2022-09-12T06:49:11.885Z,1198.12
2022-09-12T06:50:12.869Z,1468.12
2022-09-12T06:51:12.247Z,489.38
2022-09-12T06:52:12.397Z,489.38
2022-09-12T06:53:12.546Z,382.50
2022-09-12T06:54:12.672Z,360.00
2022-09-12T06:55:16.207Z,405.00
2022-09-12T06:56:15.039Z,495.00
2022-09-12T06:57:13.870Z,1012.50
2022-09-12T06:58:13.462Z,916.88
2022-09-12T06:59:14.375Z,517.50
2022-09-12T07:00:13.784Z,888.75
2022-09-12T07:01:13.945Z,826.88
2022-09-12T07:02:14.112Z,1867.50
2022-09-12T07:03:14.287Z,2379.38
2022-09-12T07:04:14.433Z,2829.38
2022-09-12T07:05:14.884Z,3037.50
2022-09-12T07:06:14.775Z,2857.50
2022-09-12T07:07:14.911Z,2829.38
2022-09-12T07:08:15.070Z,2705.62
2022-09-12T07:09:15.206Z,2739.38
2022-09-12T07:10:18.998Z,2469.38
2022-09-12T07:11:17.382Z,1974.38
2022-09-12T07:12:16.374Z,1434.38
2022-09-12T07:13:15.888Z,1670.62
2022-09-12T07:14:16.024Z,1935.00
2022-09-12T07:15:16.163Z,1996.88
2022-09-12T07:16:19.716Z,1715.62
2022-09-12T07:17:18.378Z,1676.25
2022-09-12T07:18:16.608Z,1479.38
2022-09-12T07:19:16.721Z,1288.12
2022-09-12T07:20:16.842Z,1265.62
2022-09-12T07:21:17.081Z,1288.12
2022-09-12T07:22:17.319Z,1068.75
2022-09-12T07:23:17.467Z,793.12
2022-09-12T07:24:17.898Z,652.50
2022-09-12T07:25:17.765Z,658.12
2022-09-12T07:26:17.915Z,781.88
2022-09-12T07:27:18.076Z,483.75
2022-09-12T07:28:18.890Z,416.25
2022-09-12T07:29:35.751Z,506.25
2022-09-12T07:30:20.515Z,573.75
2022-09-12T07:31:19.385Z,551.25
2022-09-12T07:32:18.905Z,483.75
2022-09-12T07:33:19.886Z,360.00
2022-09-12T07:34:19.265Z,298.12
2022-09-12T07:35:19.426Z,315.00
2022-09-12T07:36:19.562Z,331.88
2022-09-12T07:37:19.698Z,326.25
2022-09-12T07:38:19.850Z,348.75
2022-09-12T07:39:20.040Z,365.62
2022-09-12T07:40:20.233Z,376.88
2022-09-12T07:41:20.397Z,416.25
2022-09-12T07:42:20.527Z,573.75
2022-09-12T07:43:20.654Z,540.00
2022-09-12T07:44:20.824Z,562.50
2022-09-12T07:45:21.399Z,421.88
2022-09-12T07:46:21.890Z,371.25
2022-09-12T07:47:21.357Z,354.38
2022-09-12T07:48:21.590Z,343.12
2022-09-12T07:49:21.844Z,354.38
2022-09-12T07:50:21.969Z,348.75
2022-09-12T07:51:22.146Z,343.12
2022-09-12T07:52:22.278Z,371.25
2022-09-12T07:53:22.907Z,466.88
2022-09-12T07:54:22.632Z,461.25
2022-09-12T07:55:22.872Z,461.25
2022-09-12T07:56:28.777Z,500.62
2022-09-12T07:57:25.160Z,399.38
2022-09-12T07:58:23.252Z,315.00
2022-09-12T07:59:48.438Z,331.88
2022-09-12T08:00:25.617Z,320.62
2022-09-12T08:01:24.441Z,264.38
2022-09-12T08:02:24.050Z,253.12
2022-09-12T08:03:24.105Z,236.25
2022-09-12T08:04:24.409Z,247.50
2022-09-12T08:05:25.397Z,230.62
2022-09-12T08:06:24.661Z,230.62
2022-09-12T08:07:25.412Z,225.00
2022-09-12T08:08:24.941Z,208.12
2022-09-12T08:09:25.151Z,191.25
2022-09-12T08:10:25.337Z,185.62
2022-09-12T08:11:26.400Z,180.00
2022-09-12T08:12:26.401Z,168.75
2022-09-12T08:13:25.811Z,163.12
2022-09-12T08:14:26.013Z,157.50
2022-09-12T08:15:26.163Z,163.12
2022-09-12T08:16:26.324Z,157.50
2022-09-12T08:17:26.510Z,151.88
2022-09-12T08:18:26.668Z,146.25
2022-09-12T08:19:26.921Z,146.25
2022-09-12T08:20:28.506Z,146.25
2022-09-12T08:21:28.963Z,146.25
2022-09-12T08:22:27.333Z,140.62
2022-09-12T08:23:28.403Z,135.00
2022-09-12T08:24:27.916Z,135.00
2022-09-12T08:25:27.799Z,135.00
2022-09-12T08:26:27.974Z,129.38
2022-09-12T08:27:29.173Z,129.38
2022-09-12T08:28:28.910Z,118.12
2022-09-12T08:29:28.427Z,118.12
2022-09-12T08:30:28.598Z,118.12
2022-09-12T08:31:28.772Z,112.50
2022-09-12T08:32:28.957Z,112.50
2022-09-12T08:33:29.935Z,112.50
2022-09-12T08:34:29.906Z,118.12
2022-09-12T08:35:29.540Z,112.50
2022-09-12T08:36:29.735Z,112.50
2022-09-12T08:37:29.939Z,112.50
2022-09-12T08:38:30.099Z,112.50
2022-09-12T08:39:30.916Z,112.50
2022-09-12T08:40:30.423Z,112.50
2022-09-12T08:41:31.421Z,112.50
2022-09-12T08:42:30.844Z,118.12
2022-09-12T08:43:30.995Z,118.12
2022-09-12T08:44:31.142Z,118.12
2022-09-12T08:45:31.315Z,129.38
2022-09-12T08:46:31.932Z,135.00
2022-09-12T08:47:31.689Z,140.62
2022-09-12T08:48:31.835Z,151.88
2022-09-12T08:49:32.912Z,157.50
2022-09-12T08:50:32.172Z,163.12
2022-09-12T08:51:32.337Z,163.12
2022-09-12T08:52:32.481Z,168.75
2022-09-12T08:53:32.617Z,174.38
2022-09-12T08:54:32.817Z,174.38
2022-09-12T08:55:33.915Z,180.00
2022-09-12T08:56:33.429Z,185.62
2022-09-12T08:57:33.313Z,191.25
2022-09-12T08:58:33.552Z,196.88
2022-09-12T08:59:33.686Z,208.12
2022-09-12T09:00:33.823Z,208.12
2022-09-12T09:01:34.511Z,213.75
2022-09-12T09:02:34.984Z,225.00
2022-09-12T09:03:35.460Z,225.00
2022-09-12T09:04:34.709Z,219.38
2022-09-12T09:05:34.935Z,219.38
2022-09-12T09:06:35.431Z,213.75
2022-09-12T09:07:35.919Z,219.38
2022-09-12T09:08:35.572Z,208.12
2022-09-12T09:09:35.700Z,213.75
2022-09-12T09:10:35.940Z,208.12
2022-09-12T09:11:36.439Z,202.50
2022-09-12T09:12:36.292Z,208.12
2022-09-12T09:13:36.405Z,213.75
2022-09-12T09:14:36.525Z,213.75
2022-09-12T09:15:36.779Z,213.75
2022-09-12T09:16:36.895Z,213.75
2022-09-12T09:17:37.135Z,213.75
2022-09-12T09:18:37.254Z,225.00
2022-09-12T09:19:37.525Z,230.62
2022-09-12T09:20:38.434Z,230.62
2022-09-12T09:21:37.882Z,230.62
2022-09-12T09:22:38.111Z,219.38
2022-09-12T09:23:38.438Z,225.00
2022-09-12T09:24:39.428Z,225.00
2022-09-12T09:25:38.782Z,219.38
2022-09-12T09:26:39.013Z,213.75
2022-09-12T09:27:41.431Z,208.12
2022-09-12T09:28:40.438Z,225.00
2022-09-12T09:29:40.429Z,225.00
2022-09-12T09:30:39.812Z,225.00
2022-09-12T09:31:39.962Z,236.25
2022-09-12T09:32:40.933Z,264.38
2022-09-12T09:33:40.951Z,236.25
2022-09-12T09:34:40.447Z,236.25
2022-09-12T09:35:40.582Z,258.75
2022-09-12T09:36:41.429Z,247.50
2022-09-12T09:37:41.936Z,230.62
2022-09-12T09:38:41.192Z,225.00
2022-09-12T09:39:41.377Z,230.62
2022-09-12T09:40:41.551Z,230.62
2022-09-12T09:41:41.690Z,236.25
2022-09-12T09:42:41.875Z,247.50
2022-09-12T09:43:42.022Z,264.38
2022-09-12T09:44:42.163Z,253.12
2022-09-12T09:45:44.608Z,253.12
2022-09-12T09:46:44.407Z,326.25
2022-09-12T09:47:42.945Z,365.62
2022-09-12T09:48:42.965Z,286.88
2022-09-12T09:49:43.939Z,286.88
2022-09-12T09:50:43.184Z,281.25
2022-09-12T09:51:43.956Z,258.75
2022-09-12T09:52:43.487Z,376.88
2022-09-12T09:53:44.454Z,253.12
2022-09-12T09:54:43.825Z,230.62
2022-09-12T09:55:43.979Z,230.62
2022-09-12T09:56:44.534Z,225.00
2022-09-12T09:57:44.938Z,219.38
2022-09-12T09:58:44.513Z,208.12
2022-09-12T09:59:45.440Z,213.75
2022-09-12T10:00:44.689Z,208.12
2022-09-12T10:01:45.477Z,202.50
2022-09-12T10:02:45.128Z,213.75
2022-09-12T10:03:45.338Z,208.12
2022-09-12T10:04:45.507Z,213.75
2022-09-12T10:05:46.463Z,213.75
2022-09-12T10:06:46.456Z,202.50
2022-09-12T10:07:46.097Z,191.25
2022-09-12T10:08:46.366Z,196.88
2022-09-12T10:09:46.519Z,196.88
2022-09-12T10:10:47.442Z,202.50
2022-09-12T10:11:46.952Z,208.12
2022-09-12T10:12:46.987Z,202.50
2022-09-12T10:13:48.015Z,208.12
2022-09-12T10:14:47.352Z,241.88
2022-09-12T10:15:47.550Z,241.88
2022-09-12T10:16:47.761Z,236.25
2022-09-12T10:17:47.906Z,213.75
2022-09-12T10:18:48.097Z,230.62
2022-09-12T10:20:04.479Z,208.12
2022-09-12T10:20:50.960Z,208.12
2022-09-12T10:21:48.671Z,208.12
2022-09-12T10:22:48.865Z,213.75
2022-09-12T10:23:49.017Z,208.12
2022-09-12T10:24:49.148Z,213.75
2022-09-12T10:25:49.305Z,213.75
2022-09-12T10:26:53.263Z,241.88
2022-09-12T10:27:50.613Z,286.88
2022-09-12T10:28:49.745Z,292.50
2022-09-12T10:29:49.922Z,309.38
2022-09-12T10:30:50.130Z,320.62
2022-09-12T10:31:50.267Z,315.00
2022-09-12T10:32:50.435Z,320.62
2022-09-12T10:33:50.596Z,292.50
2022-09-12T10:34:50.785Z,281.25
2022-09-12T10:35:51.469Z,298.12
2022-09-12T10:36:51.146Z,241.88
2022-09-12T10:37:52.341Z,264.38
2022-09-12T10:38:52.437Z,275.62
2022-09-12T10:39:52.495Z,275.62
2022-09-12T10:40:51.768Z,281.25
2022-09-12T10:41:51.921Z,253.12
2022-09-12T10:42:52.959Z,264.38
2022-09-12T10:43:52.352Z,253.12
2022-09-12T10:44:52.967Z,230.62
2022-09-12T10:45:52.657Z,315.00
2022-09-12T10:46:52.843Z,275.62
2022-09-12T10:47:53.012Z,281.25
2022-09-12T10:48:53.198Z,236.25
2022-09-12T10:49:53.481Z,281.25
2022-09-12T10:50:53.490Z,236.25
2022-09-12T10:51:54.479Z,219.38
2022-09-12T10:52:54.459Z,219.38
2022-09-12T10:53:54.485Z,270.00
2022-09-12T10:54:54.966Z,247.50
2022-09-12T10:55:55.466Z,292.50
2022-09-12T10:56:55.457Z,236.25
2022-09-12T10:57:54.834Z,202.50
2022-09-12T10:58:55.020Z,208.12
2022-09-12T10:59:55.176Z,208.12
2022-09-12T11:00:55.354Z,191.25
2022-09-12T11:01:56.462Z,208.12
2022-09-12T11:02:56.464Z,196.88
2022-09-12T11:03:55.849Z,202.50
2022-09-12T11:04:56.479Z,135.00
2022-09-12T11:05:56.252Z,135.00
2022-09-12T11:06:56.390Z,129.38
2022-09-12T11:07:57.478Z,185.62
2022-09-12T11:08:56.734Z,140.62
2022-09-12T11:09:56.912Z,163.12
2022-09-12T11:10:57.080Z,247.50
2022-09-12T11:11:57.963Z,241.88
2022-09-12T11:12:57.480Z,129.38
2022-09-12T11:13:57.498Z,140.62
2022-09-12T11:14:58.472Z,135.00
2022-09-12T11:15:57.919Z,151.88
2022-09-12T11:16:58.108Z,253.12
2022-09-12T11:17:58.316Z,253.12
2022-09-12T11:18:58.470Z,258.75
2022-09-12T11:19:59.465Z,230.62
2022-09-12T11:20:58.855Z,163.12
2022-09-12T11:21:59.034Z,140.62
2022-09-12T11:23:00.218Z,236.25
2022-09-12T11:23:59.342Z,253.12
2022-09-12T11:25:00.469Z,247.50
2022-09-12T11:25:59.721Z,258.75
2022-09-12T11:26:59.855Z,258.75
2022-09-12T11:28:00.026Z,253.12
2022-09-12T11:29:00.184Z,253.12
2022-09-12T11:30:00.325Z,253.12
2022-09-12T11:31:00.490Z,253.12
2022-09-12T11:32:01.481Z,247.50
2022-09-12T11:33:00.850Z,253.12
2022-09-12T11:34:01.002Z,258.75
2022-09-12T11:35:01.114Z,264.38
2022-09-12T11:36:01.221Z,275.62
2022-09-12T11:37:01.354Z,123.75
2022-09-12T11:38:01.496Z,157.50
2022-09-12T11:39:01.628Z,118.12
2022-09-12T11:40:01.985Z,123.75
2022-09-12T11:41:02.994Z,135.00
2022-09-12T11:42:02.209Z,196.88
2022-09-12T11:43:02.988Z,275.62
2022-09-12T11:44:02.591Z,286.88
2022-09-12T11:45:03.000Z,129.38
2022-09-12T11:46:02.945Z,286.88
2022-09-12T11:47:04.979Z,281.25
2022-09-12T11:48:03.986Z,281.25
2022-09-12T11:49:05.461Z,281.25
2022-09-12T11:50:04.017Z,270.00
2022-09-12T11:51:03.925Z,118.12
2022-09-12T11:52:04.983Z,118.12
2022-09-12T11:53:04.229Z,270.00
2022-09-12T11:54:04.980Z,174.38
2022-09-12T11:55:05.498Z,129.38
2022-09-12T11:56:04.675Z,281.25
2022-09-12T11:57:04.830Z,281.25
2022-09-12T11:58:05.005Z,270.00
2022-09-12T11:59:05.983Z,123.75
2022-09-12T12:00:05.367Z,281.25
2022-09-12T12:01:06.545Z,219.38
2022-09-12T12:02:05.748Z,112.50
2022-09-12T12:03:05.822Z,106.88
2022-09-12T12:04:05.989Z,112.50
2022-09-12T12:05:06.140Z,258.75
2022-09-12T12:06:06.298Z,275.62
2022-09-12T12:07:06.986Z,281.25
2022-09-12T12:08:06.997Z,281.25
2022-09-12T12:09:07.001Z,281.25
2022-09-12T12:10:06.879Z,281.25
2022-09-12T12:11:07.015Z,286.88
2022-09-12T12:12:07.989Z,275.62
2022-09-12T12:13:11.972Z,270.00
2022-09-12T12:14:09.635Z,275.62
2022-09-12T12:15:07.855Z,281.25
2022-09-12T12:16:08.093Z,270.00
2022-09-12T12:17:08.992Z,258.75
2022-09-12T12:18:08.505Z,247.50
2022-09-12T12:19:10.739Z,270.00
2022-09-12T12:20:10.542Z,112.50
2022-09-12T12:21:09.492Z,168.75
2022-09-12T12:22:09.126Z,270.00
2022-09-12T12:23:10.021Z,281.25
2022-09-12T12:24:09.538Z,270.00
2022-09-12T12:25:09.704Z,264.38
2022-09-12T12:26:09.876Z,264.38
2022-09-12T12:27:10.043Z,270.00
2022-09-12T12:28:11.004Z,230.62
2022-09-12T12:29:11.032Z,202.50
2022-09-12T12:30:10.559Z,275.62
2022-09-12T12:31:11.932Z,270.00
2022-09-12T12:32:10.920Z,264.38
2022-09-12T12:33:11.999Z,270.00
2022-09-12T12:34:11.238Z,270.00
2022-09-12T12:35:12.007Z,264.38
2022-09-12T12:36:12.014Z,264.38
2022-09-12T12:37:11.763Z,264.38
2022-09-12T12:38:11.903Z,264.38
2022-09-12T12:39:13.001Z,264.38
2022-09-12T12:40:12.268Z,258.75
2022-09-12T12:41:13.449Z,258.75
2022-09-12T12:42:15.893Z,258.75
2022-09-12T12:43:15.500Z,258.75
2022-09-12T12:44:12.936Z,258.75
2022-09-12T12:45:13.076Z,258.75
2022-09-12T12:46:13.276Z,258.75
2022-09-12T12:47:13.524Z,258.75
2022-09-12T12:48:13.531Z,253.12
2022-09-12T12:49:13.684Z,253.12
2022-09-12T12:50:13.823Z,253.12